sensor_id;sensor_type;location;lat;lon;timestamp;temperature;humidity
75357;HTU21D;63946;51.986;5.930;2023-08-06T07:29:18;17.48;76.49
75357;HTU21D;63946;51.986;5.930;2023-08-06T07:31:48;17.53;76.45
75357;HTU21D;63946;51.986;5.930;2023-08-06T07:34:17;17.61;76.33
75357;HTU21D;63946;51.986;5.930;2023-08-06T07:36:46;17.65;76.15
75357;HTU21D;63946;51.986;5.930;2023-08-06T07:39:16;17.70;76.05
75357;HTU21D;63946;51.986;5.930;2023-08-06T07:41:47;17.76;75.91
75357;HTU21D;63946;51.986;5.930;2023-08-06T07:44:19;17.80;75.95
75357;HTU21D;63946;51.986;5.930;2023-08-06T07:46:49;17.80;76.01
75357;HTU21D;63946;51.986;5.930;2023-08-06T07:49:21;17.83;75.94
75357;HTU21D;63946;51.986;5.930;2023-08-06T07:51:50;17.85;75.81
75357;HTU21D;63946;51.986;5.930;2023-08-06T07:54:19;17.84;75.82
75357;HTU21D;63946;51.986;5.930;2023-08-06T07:56:53;17.83;75.90
75357;HTU21D;63946;51.986;5.930;2023-08-06T07:59:22;17.81;75.88
75357;HTU21D;63946;51.986;5.930;2023-08-06T08:01:50;17.79;75.85
75357;HTU21D;63946;51.986;5.930;2023-08-06T08:04:19;17.78;75.94
75357;HTU21D;63946;51.986;5.930;2023-08-06T08:06:48;17.81;75.92
75357;HTU21D;63946;51.986;5.930;2023-08-06T08:09:17;17.89;75.82
75357;HTU21D;63946;51.986;5.930;2023-08-06T08:11:45;17.96;75.70
75357;HTU21D;63946;51.986;5.930;2023-08-06T08:14:14;18.03;75.65
75357;HTU21D;63946;51.986;5.930;2023-08-06T08:16:43;18.11;75.49
75357;HTU21D;63946;51.986;5.930;2023-08-06T08:19:12;18.12;75.31
75357;HTU21D;63946;51.986;5.930;2023-08-06T08:21:41;18.15;75.30
75357;HTU21D;63946;51.986;5.930;2023-08-06T08:24:09;18.20;75.03
75357;HTU21D;63946;51.986;5.930;2023-08-06T08:26:38;18.19;75.05
75357;HTU21D;63946;51.986;5.930;2023-08-06T08:29:07;18.25;74.93
75357;HTU21D;63946;51.986;5.930;2023-08-06T08:31:36;18.25;74.78
75357;HTU21D;63946;51.986;5.930;2023-08-06T08:34:05;18.30;74.70
75357;HTU21D;63946;51.986;5.930;2023-08-06T08:36:34;18.29;74.51
75357;HTU21D;63946;51.986;5.930;2023-08-06T08:39:03;18.33;74.45
75357;HTU21D;63946;51.986;5.930;2023-08-06T08:41:36;18.21;74.46
75357;HTU21D;63946;51.986;5.930;2023-08-06T08:44:09;18.25;74.80
75357;HTU21D;63946;51.986;5.930;2023-08-06T08:46:40;18.30;74.64
75357;HTU21D;63946;51.986;5.930;2023-08-06T08:49:10;18.34;74.78
75357;HTU21D;63946;51.986;5.930;2023-08-06T08:51:39;18.44;74.70
75357;HTU21D;63946;51.986;5.930;2023-08-06T08:54:10;18.51;74.57
75357;HTU21D;63946;51.986;5.930;2023-08-06T08:56:39;18.53;74.59
75357;HTU21D;63946;51.986;5.930;2023-08-06T08:59:10;18.62;74.63
75357;HTU21D;63946;51.986;5.930;2023-08-06T09:01:39;18.74;74.40
75357;HTU21D;63946;51.986;5.930;2023-08-06T09:04:12;18.86;74.02
75357;HTU21D;63946;51.986;5.930;2023-08-06T09:06:41;18.93;73.86
75357;HTU21D;63946;51.986;5.930;2023-08-06T09:09:12;19.00;73.72
75357;HTU21D;63946;51.986;5.930;2023-08-06T09:11:43;19.07;73.53
75357;HTU21D;63946;51.986;5.930;2023-08-06T09:14:14;19.13;73.63
75357;HTU21D;63946;51.986;5.930;2023-08-06T09:16:43;19.17;73.63
75357;HTU21D;63946;51.986;5.930;2023-08-06T09:19:13;19.25;73.60
75357;HTU21D;63946;51.986;5.930;2023-08-06T09:21:44;19.36;73.45
75357;HTU21D;63946;51.986;5.930;2023-08-06T09:24:14;19.37;73.35
75357;HTU21D;63946;51.986;5.930;2023-08-06T09:26:45;19.27;72.96
75357;HTU21D;63946;51.986;5.930;2023-08-06T09:29:13;19.10;73.35
75357;HTU21D;63946;51.986;5.930;2023-08-06T09:31:47;18.99;73.67
75357;HTU21D;63946;51.986;5.930;2023-08-06T09:34:19;18.88;73.90
75357;HTU21D;63946;51.986;5.930;2023-08-06T09:36:50;18.85;74.05
75357;HTU21D;63946;51.986;5.930;2023-08-06T09:39:29;18.81;74.07
75357;HTU21D;63946;51.986;5.930;2023-08-06T09:42:00;18.77;74.18
75357;HTU21D;63946;51.986;5.930;2023-08-06T09:44:31;18.74;74.25
75357;HTU21D;63946;51.986;5.930;2023-08-06T09:47:05;18.69;74.40
75357;HTU21D;63946;51.986;5.930;2023-08-06T09:49:44;18.65;74.50
75357;HTU21D;63946;51.986;5.930;2023-08-06T09:52:13;18.61;74.61
75357;HTU21D;63946;51.986;5.930;2023-08-06T09:54:43;18.58;74.65
75357;HTU21D;63946;51.986;5.930;2023-08-06T09:57:12;18.54;74.80
75357;HTU21D;63946;51.986;5.930;2023-08-06T09:59:43;18.50;74.92
75357;HTU21D;63946;51.986;5.930;2023-08-06T10:02:13;18.44;75.14
75357;HTU21D;63946;51.986;5.930;2023-08-06T10:04:44;18.36;75.31
75357;HTU21D;63946;51.986;5.930;2023-08-06T10:07:14;18.33;75.43
75357;HTU21D;63946;51.986;5.930;2023-08-06T10:09:44;18.26;75.41
75357;HTU21D;63946;51.986;5.930;2023-08-06T10:12:13;18.21;75.18
75357;HTU21D;63946;51.986;5.930;2023-08-06T10:14:44;18.05;75.12
75357;HTU21D;63946;51.986;5.930;2023-08-06T10:17:15;17.88;75.79
75357;HTU21D;63946;51.986;5.930;2023-08-06T10:19:44;17.74;76.19
75357;HTU21D;63946;51.986;5.930;2023-08-06T10:22:23;17.72;76.36
75357;HTU21D;63946;51.986;5.930;2023-08-06T10:24:57;17.68;76.32
75357;HTU21D;63946;51.986;5.930;2023-08-06T10:27:35;17.62;76.37
75357;HTU21D;63946;51.986;5.930;2023-08-06T10:30:25;17.61;76.47
75357;HTU21D;63946;51.986;5.930;2023-08-06T10:32:58;17.65;76.51
75357;HTU21D;63946;51.986;5.930;2023-08-06T10:38:33;17.68;76.53
75357;HTU21D;63946;51.986;5.930;2023-08-06T10:41:03;17.64;76.39
75357;HTU21D;63946;51.986;5.930;2023-08-06T10:43:36;17.53;76.34
75357;HTU21D;63946;51.986;5.930;2023-08-06T10:46:26;17.39;76.00
75357;HTU21D;63946;51.986;5.930;2023-08-06T10:48:55;17.21;76.06
75357;HTU21D;63946;51.986;5.930;2023-08-06T10:51:24;17.15;76.04
75357;HTU21D;63946;51.986;5.930;2023-08-06T10:53:53;17.05;76.05
75357;HTU21D;63946;51.986;5.930;2023-08-06T10:56:24;16.95;76.18
75357;HTU21D;63946;51.986;5.930;2023-08-06T10:58:55;16.94;76.22
75357;HTU21D;63946;51.986;5.930;2023-08-06T11:01:28;16.93;76.12
75357;HTU21D;63946;51.986;5.930;2023-08-06T11:04:01;16.90;76.04
75357;HTU21D;63946;51.986;5.930;2023-08-06T11:06:31;16.89;76.07
75357;HTU21D;63946;51.986;5.930;2023-08-06T11:09:01;16.84;76.07
75357;HTU21D;63946;51.986;5.930;2023-08-06T11:11:29;16.79;76.21
75357;HTU21D;63946;51.986;5.930;2023-08-06T11:13:58;16.79;76.20
75357;HTU21D;63946;51.986;5.930;2023-08-06T11:16:27;16.79;76.18
75357;HTU21D;63946;51.986;5.930;2023-08-06T11:18:56;16.75;76.26
75357;HTU21D;63946;51.986;5.930;2023-08-06T11:21:26;16.71;76.41
75357;HTU21D;63946;51.986;5.930;2023-08-06T11:23:55;16.67;76.42
75357;HTU21D;63946;51.986;5.930;2023-08-06T11:26:24;16.62;76.59
75357;HTU21D;63946;51.986;5.930;2023-08-06T11:28:53;16.60;76.46
75357;HTU21D;63946;51.986;5.930;2023-08-06T11:31:23;16.54;76.57
75357;HTU21D;63946;51.986;5.930;2023-08-06T11:33:55;16.54;76.53
75357;HTU21D;63946;51.986;5.930;2023-08-06T11:36:30;16.54;76.63
75357;HTU21D;63946;51.986;5.930;2023-08-06T11:39:00;16.49;76.73
75357;HTU21D;63946;51.986;5.930;2023-08-06T11:41:31;16.47;76.98
75357;HTU21D;63946;51.986;5.930;2023-08-06T11:44:03;16.44;77.11
75357;HTU21D;63946;51.986;5.930;2023-08-06T11:46:54;16.42;77.30
75357;HTU21D;63946;51.986;5.930;2023-08-06T11:52:19;16.45;77.31
75357;HTU21D;63946;51.986;5.930;2023-08-06T11:55:06;16.45;77.49
75357;HTU21D;63946;51.986;5.930;2023-08-06T11:57:39;16.47;77.37
75357;HTU21D;63946;51.986;5.930;2023-08-06T12:00:14;16.46;77.39
75357;HTU21D;63946;51.986;5.930;2023-08-06T12:02:45;16.46;77.36
75357;HTU21D;63946;51.986;5.930;2023-08-06T12:05:16;16.42;77.30
75357;HTU21D;63946;51.986;5.930;2023-08-06T12:07:49;16.39;77.36
75357;HTU21D;63946;51.986;5.930;2023-08-06T12:10:19;16.35;77.27
75357;HTU21D;63946;51.986;5.930;2023-08-06T12:12:48;16.31;77.30
75357;HTU21D;63946;51.986;5.930;2023-08-06T12:15:19;16.26;77.44
75357;HTU21D;63946;51.986;5.930;2023-08-06T12:17:47;16.25;77.61
75357;HTU21D;63946;51.986;5.930;2023-08-06T12:20:19;16.27;77.58
75357;HTU21D;63946;51.986;5.930;2023-08-06T12:22:47;16.29;77.49
75357;HTU21D;63946;51.986;5.930;2023-08-06T12:25:16;16.25;77.43
75357;HTU21D;63946;51.986;5.930;2023-08-06T12:27:45;16.19;77.47
75357;HTU21D;63946;51.986;5.930;2023-08-06T12:30:14;16.17;77.58
75357;HTU21D;63946;51.986;5.930;2023-08-06T12:32:43;16.16;77.60
75357;HTU21D;63946;51.986;5.930;2023-08-06T12:35:13;16.14;77.69
75357;HTU21D;63946;51.986;5.930;2023-08-06T12:37:42;16.18;77.71
75357;HTU21D;63946;51.986;5.930;2023-08-06T12:40:11;16.18;77.82
75357;HTU21D;63946;51.986;5.930;2023-08-06T12:42:41;16.19;77.85
75357;HTU21D;63946;51.986;5.930;2023-08-06T12:45:10;16.20;77.91
75357;HTU21D;63946;51.986;5.930;2023-08-06T12:47:38;16.22;77.88
75357;HTU21D;63946;51.986;5.930;2023-08-06T12:50:07;16.24;77.95
75357;HTU21D;63946;51.986;5.930;2023-08-06T12:52:36;16.26;77.91
75357;HTU21D;63946;51.986;5.930;2023-08-06T12:55:05;16.25;77.89
75357;HTU21D;63946;51.986;5.930;2023-08-06T12:57:34;16.26;77.93
75357;HTU21D;63946;51.986;5.930;2023-08-06T13:00:03;16.27;77.95
75357;HTU21D;63946;51.986;5.930;2023-08-06T13:02:32;16.27;77.95
75357;HTU21D;63946;51.986;5.930;2023-08-06T13:05:01;16.26;78.00
75357;HTU21D;63946;51.986;5.930;2023-08-06T13:07:31;16.27;78.04
75357;HTU21D;63946;51.986;5.930;2023-08-06T13:10:03;16.28;78.01
75357;HTU21D;63946;51.986;5.930;2023-08-06T13:12:35;16.29;78.00
75357;HTU21D;63946;51.986;5.930;2023-08-06T13:15:04;16.29;78.02
75357;HTU21D;63946;51.986;5.930;2023-08-06T13:17:37;16.27;78.05
75357;HTU21D;63946;51.986;5.930;2023-08-06T13:20:06;16.27;78.13
75357;HTU21D;63946;51.986;5.930;2023-08-06T13:22:36;16.27;78.08
75357;HTU21D;63946;51.986;5.930;2023-08-06T13:25:05;16.24;78.14
75357;HTU21D;63946;51.986;5.930;2023-08-06T13:27:34;16.19;78.28
75357;HTU21D;63946;51.986;5.930;2023-08-06T13:30:03;16.21;78.30
75357;HTU21D;63946;51.986;5.930;2023-08-06T13:32:32;16.22;78.30
75357;HTU21D;63946;51.986;5.930;2023-08-06T13:35:10;16.24;78.23
75357;HTU21D;63946;51.986;5.930;2023-08-06T13:37:39;16.21;78.30
75357;HTU21D;63946;51.986;5.930;2023-08-06T13:40:08;16.20;78.32
75357;HTU21D;63946;51.986;5.930;2023-08-06T13:42:40;16.18;78.41
75357;HTU21D;63946;51.986;5.930;2023-08-06T13:45:09;16.20;78.45
75357;HTU21D;63946;51.986;5.930;2023-08-06T13:47:38;16.22;78.48
75357;HTU21D;63946;51.986;5.930;2023-08-06T13:50:08;16.25;78.48
75357;HTU21D;63946;51.986;5.930;2023-08-06T13:52:36;16.28;78.41
75357;HTU21D;63946;51.986;5.930;2023-08-06T13:55:05;16.29;78.47
75357;HTU21D;63946;51.986;5.930;2023-08-06T13:57:35;16.33;78.39
75357;HTU21D;63946;51.986;5.930;2023-08-06T14:00:04;16.33;78.38
75357;HTU21D;63946;51.986;5.930;2023-08-06T14:02:38;16.34;78.32
75357;HTU21D;63946;51.986;5.930;2023-08-06T14:05:09;16.35;78.31
75357;HTU21D;63946;51.986;5.930;2023-08-06T14:07:38;16.37;78.27
75357;HTU21D;63946;51.986;5.930;2023-08-06T14:10:09;16.40;78.21
75357;HTU21D;63946;51.986;5.930;2023-08-06T14:12:37;16.43;78.11
75357;HTU21D;63946;51.986;5.930;2023-08-06T14:15:07;16.47;78.12
75357;HTU21D;63946;51.986;5.930;2023-08-06T14:17:35;16.50;78.01
75357;HTU21D;63946;51.986;5.930;2023-08-06T14:20:07;16.55;77.95
75357;HTU21D;63946;51.986;5.930;2023-08-06T14:22:37;16.58;77.89
75357;HTU21D;63946;51.986;5.930;2023-08-06T14:25:07;16.60;77.89
75357;HTU21D;63946;51.986;5.930;2023-08-06T14:27:35;16.64;77.89
75357;HTU21D;63946;51.986;5.930;2023-08-06T14:30:07;16.67;77.80
75357;HTU21D;63946;51.986;5.930;2023-08-06T14:32:36;16.66;77.89
75357;HTU21D;63946;51.986;5.930;2023-08-06T14:35:08;16.67;77.91
75357;HTU21D;63946;51.986;5.930;2023-08-06T14:37:37;16.69;77.99
75357;HTU21D;63946;51.986;5.930;2023-08-06T14:40:07;16.72;77.97
75357;HTU21D;63946;51.986;5.930;2023-08-06T14:42:36;16.71;78.01
75357;HTU21D;63946;51.986;5.930;2023-08-06T14:45:05;16.70;78.00
75357;HTU21D;63946;51.986;5.930;2023-08-06T14:47:34;16.71;78.01
75357;HTU21D;63946;51.986;5.930;2023-08-06T14:50:03;16.72;77.99
75357;HTU21D;63946;51.986;5.930;2023-08-06T14:52:32;16.77;77.92
75357;HTU21D;63946;51.986;5.930;2023-08-06T14:55:01;16.78;77.86
75357;HTU21D;63946;51.986;5.930;2023-08-06T14:57:32;16.80;77.92
75357;HTU21D;63946;51.986;5.930;2023-08-06T15:00:00;16.84;77.96
75357;HTU21D;63946;51.986;5.930;2023-08-06T15:02:29;16.86;77.90
75357;HTU21D;63946;51.986;5.930;2023-08-06T15:04:58;16.92;77.77
75357;HTU21D;63946;51.986;5.930;2023-08-06T15:07:27;16.94;77.76
75357;HTU21D;63946;51.986;5.930;2023-08-06T15:09:59;17.00;77.67
75357;HTU21D;63946;51.986;5.930;2023-08-06T15:12:28;17.01;77.56
75357;HTU21D;63946;51.986;5.930;2023-08-06T15:14:58;17.03;77.50
75357;HTU21D;63946;51.986;5.930;2023-08-06T15:17:27;17.04;77.52
75357;HTU21D;63946;51.986;5.930;2023-08-06T15:19:56;17.09;77.40
75357;HTU21D;63946;51.986;5.930;2023-08-06T15:22:26;17.14;77.42
75357;HTU21D;63946;51.986;5.930;2023-08-06T15:24:57;17.18;77.40
75357;HTU21D;63946;51.986;5.930;2023-08-06T15:27:26;17.22;77.45
75357;HTU21D;63946;51.986;5.930;2023-08-06T15:29:55;17.25;77.47
75357;HTU21D;63946;51.986;5.930;2023-08-06T15:32:24;17.32;77.47
75357;HTU21D;63946;51.986;5.930;2023-08-06T15:34:53;17.36;77.49
75357;HTU21D;63946;51.986;5.930;2023-08-06T15:37:22;17.41;77.46
75357;HTU21D;63946;51.986;5.930;2023-08-06T15:39:55;17.45;77.37
75357;HTU21D;63946;51.986;5.930;2023-08-06T15:42:26;17.50;77.32
75357;HTU21D;63946;51.986;5.930;2023-08-06T15:44:55;17.55;77.24
75357;HTU21D;63946;51.986;5.930;2023-08-06T15:47:24;17.54;77.30
75357;HTU21D;63946;51.986;5.930;2023-08-06T15:49:55;17.54;77.27
75357;HTU21D;63946;51.986;5.930;2023-08-06T15:52:27;17.56;77.34
75357;HTU21D;63946;51.986;5.930;2023-08-06T15:54:56;17.61;77.37
75357;HTU21D;63946;51.986;5.930;2023-08-06T15:57:33;17.59;77.28
75357;HTU21D;63946;51.986;5.930;2023-08-06T16:00:05;17.58;77.27
75357;HTU21D;63946;51.986;5.930;2023-08-06T16:02:42;17.54;77.31
75357;HTU21D;63946;51.986;5.930;2023-08-06T16:05:11;17.49;77.48
75357;HTU21D;63946;51.986;5.930;2023-08-06T16:07:39;17.46;77.53
75357;HTU21D;63946;51.986;5.930;2023-08-06T16:10:11;17.41;77.46
75357;HTU21D;63946;51.986;5.930;2023-08-06T16:12:39;17.44;77.31
75357;HTU21D;63946;51.986;5.930;2023-08-06T16:15:08;17.43;77.12
75357;HTU21D;63946;51.986;5.930;2023-08-06T16:17:39;17.40;76.79
75357;HTU21D;63946;51.986;5.930;2023-08-06T16:20:08;17.34;76.70
75357;HTU21D;63946;51.986;5.930;2023-08-06T16:22:36;17.31;76.63
75357;HTU21D;63946;51.986;5.930;2023-08-06T16:25:05;17.30;76.57
75357;HTU21D;63946;51.986;5.930;2023-08-06T16:27:39;17.29;76.42
75357;HTU21D;63946;51.986;5.930;2023-08-06T16:30:08;17.28;76.31
75357;HTU21D;63946;51.986;5.930;2023-08-06T16:32:37;17.25;76.34
75357;HTU21D;63946;51.986;5.930;2023-08-06T16:35:06;17.23;76.21
75357;HTU21D;63946;51.986;5.930;2023-08-06T16:37:35;17.19;76.24
75357;HTU21D;63946;51.986;5.930;2023-08-06T16:40:05;17.17;76.15
75357;HTU21D;63946;51.986;5.930;2023-08-06T16:42:35;17.15;75.92
75357;HTU21D;63946;51.986;5.930;2023-08-06T16:45:04;17.10;75.91
75357;HTU21D;63946;51.986;5.930;2023-08-06T16:47:33;17.07;76.02
75357;HTU21D;63946;51.986;5.930;2023-08-06T16:50:02;17.07;76.00
75357;HTU21D;63946;51.986;5.930;2023-08-06T16:52:32;17.06;75.90
75357;HTU21D;63946;51.986;5.930;2023-08-06T16:55:01;17.04;75.75
75357;HTU21D;63946;51.986;5.930;2023-08-06T16:57:30;17.00;75.82
75357;HTU21D;63946;51.986;5.930;2023-08-06T16:59:59;16.99;75.82
75357;HTU21D;63946;51.986;5.930;2023-08-06T17:02:27;16.98;75.77
75357;HTU21D;63946;51.986;5.930;2023-08-06T17:04:56;16.95;75.74
75357;HTU21D;63946;51.986;5.930;2023-08-06T17:07:25;16.92;75.58
75357;HTU21D;63946;51.986;5.930;2023-08-06T17:09:54;16.89;75.57
75357;HTU21D;63946;51.986;5.930;2023-08-06T17:12:26;16.85;75.37
75357;HTU21D;63946;51.986;5.930;2023-08-06T17:14:55;16.81;75.29
75357;HTU21D;63946;51.986;5.930;2023-08-06T17:17:25;16.76;75.14
75357;HTU21D;63946;51.986;5.930;2023-08-06T17:19:54;16.70;74.98
75357;HTU21D;63946;51.986;5.930;2023-08-06T17:22:23;16.65;74.98
75357;HTU21D;63946;51.986;5.930;2023-08-06T17:24:55;16.64;74.89
75357;HTU21D;63946;51.986;5.930;2023-08-06T17:27:26;16.58;74.86
75357;HTU21D;63946;51.986;5.930;2023-08-06T17:29:55;16.51;74.99
75357;HTU21D;63946;51.986;5.930;2023-08-06T17:32:26;16.47;74.98
75357;HTU21D;63946;51.986;5.930;2023-08-06T17:34:55;16.43;75.01
75357;HTU21D;63946;51.986;5.930;2023-08-06T17:37:24;16.44;75.02
75357;HTU21D;63946;51.986;5.930;2023-08-06T17:39:55;16.42;74.94
75357;HTU21D;63946;51.986;5.930;2023-08-06T17:42:24;16.39;75.01
75357;HTU21D;63946;51.986;5.930;2023-08-06T17:44:56;16.40;75.15
75357;HTU21D;63946;51.986;5.930;2023-08-06T17:47:25;16.41;75.25
75357;HTU21D;63946;51.986;5.930;2023-08-06T17:49:58;16.42;75.21
75357;HTU21D;63946;51.986;5.930;2023-08-06T17:52:27;16.40;75.25
75357;HTU21D;63946;51.986;5.930;2023-08-06T17:54:56;16.41;75.28
75357;HTU21D;63946;51.986;5.930;2023-08-06T17:57:25;16.39;75.22
75357;HTU21D;63946;51.986;5.930;2023-08-06T17:59:59;16.36;75.01
75357;HTU21D;63946;51.986;5.930;2023-08-06T18:02:37;16.24;75.01
75357;HTU21D;63946;51.986;5.930;2023-08-06T18:05:06;16.19;75.06
75357;HTU21D;63946;51.986;5.930;2023-08-06T18:07:48;16.17;75.01
75357;HTU21D;63946;51.986;5.930;2023-08-06T18:10:18;16.13;74.99
75357;HTU21D;63946;51.986;5.930;2023-08-06T18:12:47;16.10;75.06
75357;HTU21D;63946;51.986;5.930;2023-08-06T18:15:16;16.03;75.02
75357;HTU21D;63946;51.986;5.930;2023-08-06T18:17:46;16.00;75.03
75357;HTU21D;63946;51.986;5.930;2023-08-06T18:20:15;15.98;75.09
75357;HTU21D;63946;51.986;5.930;2023-08-06T18:22:43;15.98;75.02
75357;HTU21D;63946;51.986;5.930;2023-08-06T18:25:18;15.98;75.08
75357;HTU21D;63946;51.986;5.930;2023-08-06T18:27:56;15.97;75.13
75357;HTU21D;63946;51.986;5.930;2023-08-06T18:30:25;15.97;75.10
75357;HTU21D;63946;51.986;5.930;2023-08-06T18:32:54;15.96;75.18
75357;HTU21D;63946;51.986;5.930;2023-08-06T18:35:29;15.93;75.14
75357;HTU21D;63946;51.986;5.930;2023-08-06T18:37:58;15.91;75.24
75357;HTU21D;63946;51.986;5.930;2023-08-06T18:40:30;15.92;75.19
75357;HTU21D;63946;51.986;5.930;2023-08-06T18:43:01;15.91;75.21
75357;HTU21D;63946;51.986;5.930;2023-08-06T18:45:34;15.92;75.30
75357;HTU21D;63946;51.986;5.930;2023-08-06T18:48:05;15.90;75.26
75357;HTU21D;63946;51.986;5.930;2023-08-06T18:50:42;15.86;75.26
75357;HTU21D;63946;51.986;5.930;2023-08-06T18:53:11;15.86;75.17
75357;HTU21D;63946;51.986;5.930;2023-08-06T18:55:50;15.86;75.25
75357;HTU21D;63946;51.986;5.930;2023-08-06T18:58:24;15.87;75.30
75357;HTU21D;63946;51.986;5.930;2023-08-06T19:00:56;15.87;75.13
75357;HTU21D;63946;51.986;5.930;2023-08-06T19:03:28;15.82;75.15
75357;HTU21D;63946;51.986;5.930;2023-08-06T19:06:01;15.81;75.21
75357;HTU21D;63946;51.986;5.930;2023-08-06T19:08:32;15.78;75.31
75357;HTU21D;63946;51.986;5.930;2023-08-06T19:11:05;15.78;75.31
75357;HTU21D;63946;51.986;5.930;2023-08-06T19:13:34;15.78;75.35
75357;HTU21D;63946;51.986;5.930;2023-08-06T19:16:05;15.77;75.47
75357;HTU21D;63946;51.986;5.930;2023-08-06T19:18:37;15.75;75.62
75357;HTU21D;63946;51.986;5.930;2023-08-06T19:21:06;15.75;75.73
75357;HTU21D;63946;51.986;5.930;2023-08-06T19:23:35;15.73;75.63
75357;HTU21D;63946;51.986;5.930;2023-08-06T19:26:11;15.69;75.70
75357;HTU21D;63946;51.986;5.930;2023-08-06T19:28:42;15.63;75.95
75357;HTU21D;63946;51.986;5.930;2023-08-06T19:31:14;15.60;76.05
75357;HTU21D;63946;51.986;5.930;2023-08-06T19:33:46;15.60;76.15
75357;HTU21D;63946;51.986;5.930;2023-08-06T19:36:21;15.57;76.35
75357;HTU21D;63946;51.986;5.930;2023-08-06T19:38:51;15.57;76.28
75357;HTU21D;63946;51.986;5.930;2023-08-06T19:41:23;15.56;76.42
75357;HTU21D;63946;51.986;5.930;2023-08-06T19:43:52;15.54;76.48
75357;HTU21D;63946;51.986;5.930;2023-08-06T19:46:24;15.56;76.60
75357;HTU21D;63946;51.986;5.930;2023-08-06T19:48:56;15.53;76.70
75357;HTU21D;63946;51.986;5.930;2023-08-06T19:51:33;15.51;76.84
75357;HTU21D;63946;51.986;5.930;2023-08-06T19:54:07;15.48;76.92
75357;HTU21D;63946;51.986;5.930;2023-08-06T19:56:36;15.44;76.89
75357;HTU21D;63946;51.986;5.930;2023-08-06T19:59:05;15.44;76.92
75357;HTU21D;63946;51.986;5.930;2023-08-06T20:01:36;15.44;76.92
75357;HTU21D;63946;51.986;5.930;2023-08-06T20:04:05;15.41;76.97
75357;HTU21D;63946;51.986;5.930;2023-08-06T20:06:34;15.43;76.92
75357;HTU21D;63946;51.986;5.930;2023-08-06T20:09:07;15.42;76.97
75357;HTU21D;63946;51.986;5.930;2023-08-06T20:11:56;15.44;77.05
75357;HTU21D;63946;51.986;5.930;2023-08-06T20:14:28;15.44;77.04
75357;HTU21D;63946;51.986;5.930;2023-08-06T20:16:57;15.42;77.19
75357;HTU21D;63946;51.986;5.930;2023-08-06T20:19:27;15.43;77.32
75357;HTU21D;63946;51.986;5.930;2023-08-06T20:21:58;15.41;77.40
75357;HTU21D;63946;51.986;5.930;2023-08-06T20:24:26;15.41;77.40
75357;HTU21D;63946;51.986;5.930;2023-08-06T20:26:55;15.41;77.42
75357;HTU21D;63946;51.986;5.930;2023-08-06T20:29:26;15.42;77.35
75357;HTU21D;63946;51.986;5.930;2023-08-06T20:31:55;15.41;77.34
75357;HTU21D;63946;51.986;5.930;2023-08-06T20:34:23;15.41;77.38
75357;HTU21D;63946;51.986;5.930;2023-08-06T20:36:52;15.38;77.45
